Time;durP1;ratioP1;P1;durP2;ratioP2;P2;SDS_P1;SDS_P2;PMS_P1;PMS_P2;Temp;Humidity;BMP_temperature;BMP_pressure;BME280_temperature;BME280_humidity;BME280_pressure;Samples;Min_cycle;Max_cycle;Signal;HPM_P1;HPM_P2
2022/08/20 00:01:15;;;;;;;6.30;3.30;;;;;;;;;;5033133;28;20053;-73
2022/08/20 00:04:20;;;;;;;9.63;3.85;;;;;;;;;;5032976;28;20370;-73
2022/08/20 00:07:24;;;;;;;10.65;4.05;;;;;;;;;;5032212;28;20041;-74
2022/08/20 00:10:29;;;;;;;10.80;3.90;;;;;;;;;;5033145;28;20068;-73
2022/08/20 00:13:35;;;;;;;14.65;4.20;;;;;;;;;;5033204;28;20045;-73
2022/08/20 00:16:41;;;;;;;10.63;3.80;;;;;;;;;;5033232;28;20068;-73
2022/08/20 00:19:46;;;;;;;11.95;4.13;;;;;;;;;;5032755;28;20040;-74
2022/08/20 00:22:50;;;;;;;11.15;4.60;;;;;;;;;;5033184;28;20052;-74
2022/08/20 00:25:54;;;;;;;9.48;3.58;;;;;;;;;;5032604;28;20523;-74
2022/08/20 00:28:59;;;;;;;12.70;4.47;;;;;;;;;;5032006;28;20104;-73
2022/08/20 00:32:03;;;;;;;7.90;3.30;;;;;;;;;;5031751;28;20113;-73
2022/08/20 00:35:08;;;;;;;10.25;4.50;;;;;;;;;;5032503;28;20041;-73
2022/08/20 00:38:15;;;;;;;8.52;4.00;;;;;;;;;;5031858;28;20040;-73
2022/08/20 00:41:22;;;;;;;11.40;4.15;;;;;;;;;;5032254;28;20050;-74
2022/08/20 00:44:27;;;;;;;9.20;3.70;;;;;;;;;;5032629;28;20052;-73
2022/08/20 00:47:31;;;;;;;10.48;4.28;;;;;;;;;;5032560;28;20377;-73
2022/08/20 00:50:36;;;;;;;9.20;3.83;;;;;;;;;;5032459;28;20048;-74
2022/08/20 00:53:40;;;;;;;13.55;3.97;;;;;;;;;;5032527;28;20374;-74
2022/08/20 00:56:46;;;;;;;8.50;4.38;;;;;;;;;;5032211;28;20053;-73
2022/08/20 00:59:51;;;;;;;9.25;3.90;;;;;;;;;;5031797;28;20045;-73
2022/08/20 01:02:56;;;;;;;6.53;4.00;;;;;;;;;;5032146;28;20489;-73
2022/08/20 01:06:00;;;;;;;10.25;4.15;;;;;;;;;;5032109;28;20264;-73
2022/08/20 01:09:05;;;;;;;9.57;4.18;;;;;;;;;;5032578;28;20041;-73
2022/08/20 01:12:09;;;;;;;12.95;4.00;;;;;;;;;;5031598;28;20037;-73
2022/08/20 01:15:16;;;;;;;7.82;4.15;;;;;;;;;;5031817;28;20045;-73
2022/08/20 01:18:24;;;;;;;9.57;4.57;;;;;;;;;;5031917;28;20037;-73
2022/08/20 01:21:31;;;;;;;8.65;3.85;;;;;;;;;;5031763;28;20390;-74
2022/08/20 01:24:36;;;;;;;9.05;3.78;;;;;;;;;;5031694;28;20501;-73
2022/08/20 01:27:41;;;;;;;7.55;3.90;;;;;;;;;;5031626;28;20389;-74
2022/08/20 01:30:45;;;;;;;6.30;3.50;;;;;;;;;;5031398;28;20033;-73
2022/08/20 01:33:50;;;;;;;12.75;3.58;;;;;;;;;;5031664;28;20067;-74
2022/08/20 01:36:56;;;;;;;7.18;3.28;;;;;;;;;;5031411;28;20096;-74
2022/08/20 01:40:01;;;;;;;6.78;3.67;;;;;;;;;;5031511;28;20033;-74
2022/08/20 01:43:07;;;;;;;7.38;3.47;;;;;;;;;;5031611;28;20049;-73
2022/08/20 01:46:13;;;;;;;8.40;3.58;;;;;;;;;;5031403;28;20037;-73
2022/08/20 01:49:22;;;;;;;5.90;3.17;;;;;;;;;;5030537;28;20465;-74
2022/08/20 01:52:30;;;;;;;7.15;3.35;;;;;;;;;;5031059;28;20037;-73
2022/08/20 01:55:35;;;;;;;9.88;3.80;;;;;;;;;;5031270;28;20042;-73
2022/08/20 01:58:42;;;;;;;7.60;3.45;;;;;;;;;;5031343;28;20061;-73
2022/08/20 02:01:46;;;;;;;5.00;2.95;;;;;;;;;;5030714;28;20049;-73
2022/08/20 02:04:51;;;;;;;9.27;3.05;;;;;;;;;;5030998;28;20034;-73
2022/08/20 02:07:55;;;;;;;6.93;3.30;;;;;;;;;;5031187;28;20366;-74
2022/08/20 02:10:59;;;;;;;7.72;3.53;;;;;;;;;;5030368;28;20045;-73
2022/08/20 02:14:06;;;;;;;6.72;3.15;;;;;;;;;;5030846;28;20037;-73
2022/08/20 02:17:11;;;;;;;5.15;3.08;;;;;;;;;;5031031;28;20481;-73
2022/08/20 02:20:16;;;;;;;7.18;3.13;;;;;;;;;;5030904;28;20037;-74
2022/08/20 02:23:21;;;;;;;7.57;3.75;;;;;;;;;;5031026;28;20049;-74
2022/08/20 02:26:26;;;;;;;6.43;3.58;;;;;;;;;;5030736;28;20053;-74
2022/08/20 02:29:30;;;;;;;5.32;3.20;;;;;;;;;;5030959;28;20045;-73
2022/08/20 02:32:35;;;;;;;8.13;3.67;;;;;;;;;;5031056;28;20034;-73
2022/08/20 02:35:41;;;;;;;7.50;3.33;;;;;;;;;;5031041;28;20042;-73
2022/08/20 02:38:46;;;;;;;10.82;3.88;;;;;;;;;;5031222;28;20045;-73
2022/08/20 02:41:50;;;;;;;8.65;3.28;;;;;;;;;;5029960;28;20060;-73
2022/08/20 02:44:57;;;;;;;11.27;4.05;;;;;;;;;;5031183;28;20033;-73
2022/08/20 02:48:02;;;;;;;6.10;2.83;;;;;;;;;;5029924;28;20294;-73
2022/08/20 02:51:06;;;;;;;5.25;3.20;;;;;;;;;;5030447;28;20370;-73
2022/08/20 02:54:11;;;;;;;5.78;3.40;;;;;;;;;;5030702;28;20042;-74
2022/08/20 02:57:19;;;;;;;5.57;3.15;;;;;;;;;;5030746;28;20037;-73
2022/08/20 03:00:23;;;;;;;7.50;3.53;;;;;;;;;;5031030;28;20029;-73
2022/08/20 03:03:28;;;;;;;6.30;3.30;;;;;;;;;;5030481;28;20045;-73
2022/08/20 03:06:32;;;;;;;10.43;3.40;;;;;;;;;;5030828;28;20037;-73
2022/08/20 03:09:36;;;;;;;7.07;3.50;;;;;;;;;;5029879;28;20048;-73
2022/08/20 03:12:41;;;;;;;6.55;3.60;;;;;;;;;;5030511;28;20042;-73
2022/08/20 03:15:48;;;;;;;9.95;3.90;;;;;;;;;;5031066;28;20038;-73
2022/08/20 03:18:52;;;;;;;9.00;4.35;;;;;;;;;;5030254;28;20461;-73
2022/08/20 03:21:57;;;;;;;6.43;4.10;;;;;;;;;;5030117;28;20390;-73
2022/08/20 03:25:03;;;;;;;11.32;4.20;;;;;;;;;;5034412;28;20033;-73
2022/08/20 03:28:08;;;;;;;7.30;3.90;;;;;;;;;;5021693;28;20052;-73
2022/08/20 03:31:14;;;;;;;8.02;4.00;;;;;;;;;;5034240;28;20033;-73
2022/08/20 03:34:18;;;;;;;5.85;4.18;;;;;;;;;;5033961;28;20038;-73
2022/08/20 03:37:23;;;;;;;7.38;3.90;;;;;;;;;;5033076;28;20042;-73
2022/08/20 03:40:32;;;;;;;7.00;4.45;;;;;;;;;;5033877;28;20034;-73
2022/08/20 03:43:36;;;;;;;7.75;3.97;;;;;;;;;;5033854;28;20042;-73
2022/08/20 03:46:41;;;;;;;6.90;3.70;;;;;;;;;;5033741;28;20034;-73
2022/08/20 03:49:45;;;;;;;8.10;4.20;;;;;;;;;;5032889;28;20030;-73
2022/08/20 03:52:53;;;;;;;8.38;4.40;;;;;;;;;;5033584;28;20037;-73
2022/08/20 03:56:00;;;;;;;7.20;3.70;;;;;;;;;;5033583;28;20394;-73
2022/08/20 03:59:04;;;;;;;9.10;3.80;;;;;;;;;;5033524;28;20042;-73
2022/08/20 04:02:10;;;;;;;8.63;4.03;;;;;;;;;;5032327;28;20045;-73
2022/08/20 04:05:14;;;;;;;8.63;5.00;;;;;;;;;;5032494;28;20033;-73
2022/08/20 04:08:20;;;;;;;7.72;4.82;;;;;;;;;;5032115;28;20041;-73
2022/08/20 04:11:25;;;;;;;8.52;4.95;;;;;;;;;;5032870;28;20046;-73
2022/08/20 04:14:29;;;;;;;9.60;4.68;;;;;;;;;;5033065;28;20045;-73
2022/08/20 04:17:33;;;;;;;11.85;4.88;;;;;;;;;;5032991;28;20382;-73
2022/08/20 04:20:39;;;;;;;10.48;5.07;;;;;;;;;;5032929;28;20045;-73
2022/08/20 04:23:43;;;;;;;8.65;4.55;;;;;;;;;;5033103;28;20392;-73
2022/08/20 04:26:48;;;;;;;10.05;4.22;;;;;;;;;;5033134;28;20045;-73
2022/08/20 04:29:53;;;;;;;14.40;4.65;;;;;;;;;;5032754;28;20053;-73
2022/08/20 04:32:58;;;;;;;7.65;4.13;;;;;;;;;;5032687;28;20044;-73
2022/08/20 04:36:04;;;;;;;9.05;4.65;;;;;;;;;;5032290;28;20034;-73
2022/08/20 04:39:09;;;;;;;10.57;4.20;;;;;;;;;;5032675;28;20045;-73
2022/08/20 04:42:13;;;;;;;9.48;4.25;;;;;;;;;;5032014;28;20056;-73
2022/08/20 04:45:17;;;;;;;6.60;4.10;;;;;;;;;;5031652;28;20045;-73
2022/08/20 04:48:22;;;;;;;9.80;4.75;;;;;;;;;;5031535;28;20481;-73
2022/08/20 04:51:27;;;;;;;11.00;4.07;;;;;;;;;;5031750;28;20041;-73
2022/08/20 04:54:32;;;;;;;12.45;4.32;;;;;;;;;;5032270;28;20048;-73
2022/08/20 04:57:37;;;;;;;8.05;3.92;;;;;;;;;;5032145;28;20044;-73
2022/08/20 05:00:44;;;;;;;9.82;4.32;;;;;;;;;;5032013;28;20041;-73
2022/08/20 05:03:52;;;;;;;9.82;5.10;;;;;;;;;;5031214;28;20049;-73
2022/08/20 05:06:59;;;;;;;6.82;4.20;;;;;;;;;;5031881;28;20038;-73
2022/08/20 05:10:05;;;;;;;12.18;4.70;;;;;;;;;;5031971;28;20473;-72
2022/08/20 05:13:10;;;;;;;9.70;4.80;;;;;;;;;;5031917;28;20044;-73
2022/08/20 05:16:16;;;;;;;8.63;4.63;;;;;;;;;;5032153;28;20358;-73
2022/08/20 05:19:21;;;;;;;11.98;4.97;;;;;;;;;;5030978;28;20477;-73
2022/08/20 05:22:26;;;;;;;8.95;4.68;;;;;;;;;;5031577;28;20060;-73
2022/08/20 05:25:31;;;;;;;9.32;4.15;;;;;;;;;;5030794;28;20041;-73
2022/08/20 05:28:37;;;;;;;10.07;4.82;;;;;;;;;;5030950;28;20049;-73
2022/08/20 05:31:42;;;;;;;17.83;4.82;;;;;;;;;;5030542;28;20040;-73
2022/08/20 05:34:47;;;;;;;12.30;4.28;;;;;;;;;;5031784;28;20048;-73
2022/08/20 05:37:53;;;;;;;9.25;4.22;;;;;;;;;;5031477;28;20511;-73
2022/08/20 05:40:57;;;;;;;7.20;4.10;;;;;;;;;;5031439;28;20378;-73
2022/08/20 05:44:02;;;;;;;10.50;3.88;;;;;;;;;;5031569;28;20045;-73
2022/08/20 05:47:06;;;;;;;10.90;4.43;;;;;;;;;;5030541;28;20044;-73
2022/08/20 05:50:12;;;;;;;11.63;5.40;;;;;;;;;;5031206;28;20045;-73
2022/08/20 05:53:18;;;;;;;9.13;5.22;;;;;;;;;;5031450;28;20056;-72
2022/08/20 05:56:22;;;;;;;9.05;4.72;;;;;;;;;;5031333;28;20041;-73
2022/08/20 05:59:27;;;;;;;8.57;4.80;;;;;;;;;;5030865;28;20041;-73
2022/08/20 06:05:54;;;;;;;8.38;5.18;;;;;;;;;;5031035;28;20034;-72
2022/08/20 06:08:59;;;;;;;10.88;4.80;;;;;;;;;;5031259;28;20041;-72
2022/08/20 06:12:05;;;;;;;8.30;5.50;;;;;;;;;;5030066;28;20052;-72
2022/08/20 06:15:10;;;;;;;11.45;5.78;;;;;;;;;;5030853;28;20045;-72
2022/08/20 06:18:14;;;;;;;17.40;5.82;;;;;;;;;;5031169;28;20045;-73
2022/08/20 06:21:19;;;;;;;11.18;4.70;;;;;;;;;;5030924;28;20261;-72
2022/08/20 06:24:23;;;;;;;8.80;4.32;;;;;;;;;;5029675;28;20072;-72
2022/08/20 06:27:28;;;;;;;10.43;4.55;;;;;;;;;;5030645;28;20071;-72
2022/08/20 06:30:33;;;;;;;10.40;3.83;;;;;;;;;;5030423;28;20053;-72
2022/08/20 06:33:37;;;;;;;11.00;4.10;;;;;;;;;;5030634;28;20041;-72
2022/08/20 06:36:45;;;;;;;6.50;3.63;;;;;;;;;;5030526;28;20056;-72
2022/08/20 06:39:50;;;;;;;10.88;3.75;;;;;;;;;;5030780;28;20037;-72
2022/08/20 06:42:55;;;;;;;11.10;4.10;;;;;;;;;;5030628;28;20056;-72
2022/08/20 06:46:01;;;;;;;8.40;3.03;;;;;;;;;;5030683;28;20037;-72
2022/08/20 06:49:07;;;;;;;13.07;3.13;;;;;;;;;;5030558;28;20041;-72
2022/08/20 06:52:15;;;;;;;11.52;4.70;;;;;;;;;;5029661;28;20115;-72
2022/08/20 06:55:23;;;;;;;7.85;3.42;;;;;;;;;;5030804;28;20052;-71
2022/08/20 06:58:31;;;;;;;7.35;3.70;;;;;;;;;;5032950;28;20499;-72
2022/08/20 07:01:36;;;;;;;6.25;3.00;;;;;;;;;;5034148;28;20045;-72
2022/08/20 07:04:40;;;;;;;6.22;3.03;;;;;;;;;;5034235;28;20037;-72
2022/08/20 07:07:46;;;;;;;6.30;3.00;;;;;;;;;;5034090;28;20041;-71
2022/08/20 07:10:51;;;;;;;7.43;3.50;;;;;;;;;;5033996;28;20042;-71
2022/08/20 07:13:57;;;;;;;12.40;2.78;;;;;;;;;;5010576;28;20033;-71
2022/08/20 07:17:05;;;;;;;6.65;3.50;;;;;;;;;;5033817;28;20048;-71
2022/08/20 07:20:14;;;;;;;6.97;2.45;;;;;;;;;;5034052;28;20037;-72
2022/08/20 07:23:18;;;;;;;10.18;3.15;;;;;;;;;;5032983;28;20422;-72
2022/08/20 07:26:23;;;;;;;4.30;2.30;;;;;;;;;;5033689;28;20508;-72
2022/08/20 07:32:33;;;;;;;8.35;2.95;;;;;;;;;;5032971;28;20489;-72
2022/08/20 07:32:52;;;;;;;9.73;2.55;;;;;;;;;;5033855;28;20042;-72
2022/08/20 07:35:57;;;;;;;9.13;2.63;;;;;;;;;;5033979;28;20177;-72
2022/08/20 07:39:02;;;;;;;12.15;2.55;;;;;;;;;;5033451;28;20037;-71
2022/08/20 07:42:06;;;;;;;8.55;2.47;;;;;;;;;;5033525;28;20512;-71
2022/08/20 07:45:11;;;;;;;12.15;2.97;;;;;;;;;;5033378;28;20037;-74
2022/08/20 07:48:16;;;;;;;9.77;2.47;;;;;;;;;;5033158;28;20053;-73
2022/08/20 07:51:21;;;;;;;10.27;2.80;;;;;;;;;;5033080;28;20038;-74
2022/08/20 07:54:26;;;;;;;8.38;2.70;;;;;;;;;;5033592;28;20056;-73
2022/08/20 07:57:31;;;;;;;14.88;2.95;;;;;;;;;;5033089;28;20041;-72
2022/08/20 08:00:38;;;;;;;9.02;2.70;;;;;;;;;;5033112;28;20048;-72
2022/08/20 08:03:42;;;;;;;8.85;2.70;;;;;;;;;;5033078;28;20358;-72
2022/08/20 08:06:46;;;;;;;7.07;2.63;;;;;;;;;;5033291;28;20029;-73
2022/08/20 08:09:51;;;;;;;7.22;2.50;;;;;;;;;;5031902;28;20037;-73
2022/08/20 08:12:58;;;;;;;13.43;3.45;;;;;;;;;;5032956;28;20042;-73
2022/08/20 08:16:05;;;;;;;15.98;2.97;;;;;;;;;;5032455;28;20048;-73
2022/08/20 08:19:13;;;;;;;8.10;2.50;;;;;;;;;;5032786;28;20040;-72
2022/08/20 08:22:18;;;;;;;8.88;3.40;;;;;;;;;;5032559;28;20045;-73
2022/08/20 08:25:22;;;;;;;6.15;2.55;;;;;;;;;;5032586;28;20046;-73
2022/08/20 08:28:29;;;;;;;7.20;2.92;;;;;;;;;;5032776;28;20367;-73
2022/08/20 08:31:34;;;;;;;11.95;3.00;;;;;;;;;;5032442;28;20033;-73
2022/08/20 08:34:38;;;;;;;12.18;2.50;;;;;;;;;;5032637;28;20045;-73
2022/08/20 08:37:43;;;;;;;13.63;3.17;;;;;;;;;;5032368;28;20056;-72
2022/08/20 08:40:48;;;;;;;9.30;3.25;;;;;;;;;;5032239;28;20584;-73
2022/08/20 08:43:54;;;;;;;5.35;2.25;;;;;;;;;;5031386;28;20284;-73
2022/08/20 08:47:03;;;;;;;10.55;2.72;;;;;;;;;;5032229;28;20034;-73
2022/08/20 08:50:09;;;;;;;12.75;3.45;;;;;;;;;;5031770;28;20060;-73
2022/08/20 08:53:30;;;;;;;14.43;2.55;;;;;;;;;;5031964;28;20389;-73
2022/08/20 08:56:34;;;;;;;;;;;;;;;;;;5032443;28;20050;-73
2022/08/20 08:59:39;;;;;;;5.38;1.83;;;;;;;;;;5032188;28;19917;-73
2022/08/20 09:03:13;;;;;;;3.40;1.70;;;;;;;;;;5031156;28;20520;-73
2022/08/20 09:06:19;;;;;;;5.50;2.10;;;;;;;;;;5033318;28;20370;-74
2022/08/20 09:09:28;;;;;;;5.55;2.40;;;;;;;;;;5032106;28;20042;-73
2022/08/20 09:12:32;;;;;;;7.28;2.60;;;;;;;;;;5031480;28;20033;-74
2022/08/20 09:15:37;;;;;;;8.02;2.60;;;;;;;;;;5031645;28;20037;-74
2022/08/20 09:18:41;;;;;;;9.52;2.50;;;;;;;;;;5031409;28;20037;-73
2022/08/20 09:21:46;;;;;;;7.05;2.47;;;;;;;;;;5031034;28;20041;-74
2022/08/20 09:24:50;;;;;;;8.35;2.80;;;;;;;;;;5031328;28;20049;-73
2022/08/20 09:27:54;;;;;;;10.48;3.13;;;;;;;;;;5031527;28;20041;-74
2022/08/20 09:30:59;;;;;;;5.93;2.63;;;;;;;;;;5031182;28;20053;-74
2022/08/20 09:34:03;;;;;;;9.43;2.53;;;;;;;;;;5031026;28;20049;-73
2022/08/20 09:37:08;;;;;;;10.90;2.80;;;;;;;;;;5031124;28;20462;-73
2022/08/20 09:40:12;;;;;;;5.97;2.13;;;;;;;;;;5030871;28;20056;-73
2022/08/20 09:43:17;;;;;;;12.48;2.33;;;;;;;;;;5031028;28;20045;-73
2022/08/20 09:46:21;;;;;;;6.50;2.45;;;;;;;;;;5031041;28;20044;-73
2022/08/20 09:49:25;;;;;;;6.68;2.30;;;;;;;;;;5031316;28;20276;-73
2022/08/20 09:52:38;;;;;;;7.00;2.10;;;;;;;;;;5030950;28;20041;-73
2022/08/20 09:55:48;;;;;;;5.15;2.13;;;;;;;;;;5030898;28;20033;-71
2022/08/20 09:58:53;;;;;;;8.85;1.92;;;;;;;;;;5031023;28;20037;-72
2022/08/20 10:01:58;;;;;;;6.32;2.10;;;;;;;;;;5030717;28;20041;-73
2022/08/20 10:05:03;;;;;;;8.95;2.78;;;;;;;;;;5031176;28;20049;-73
2022/08/20 10:08:08;;;;;;;4.50;2.25;;;;;;;;;;5029847;28;20034;-74
2022/08/20 10:11:12;;;;;;;6.40;2.85;;;;;;;;;;5030909;28;20477;-74
2022/08/20 10:14:16;;;;;;;3.47;1.95;;;;;;;;;;5030825;28;20045;-73
2022/08/20 10:17:21;;;;;;;6.07;2.17;;;;;;;;;;5030209;28;20042;-73
2022/08/20 10:20:25;;;;;;;5.55;2.03;;;;;;;;;;5031140;28;20037;-73
2022/08/20 10:23:29;;;;;;;9.45;2.47;;;;;;;;;;5030763;28;20057;-73
2022/08/20 10:26:34;;;;;;;10.70;2.53;;;;;;;;;;5030524;28;20485;-73
2022/08/20 10:29:38;;;;;;;6.55;2.90;;;;;;;;;;5030488;28;20504;-73
2022/08/20 10:32:42;;;;;;;12.45;2.92;;;;;;;;;;5031931;28;20045;-73
2022/08/20 10:35:47;;;;;;;4.53;2.17;;;;;;;;;;5034877;28;20040;-73
2022/08/20 10:38:51;;;;;;;8.93;2.53;;;;;;;;;;5034822;28;20033;-73
2022/08/20 10:41:55;;;;;;;7.55;2.45;;;;;;;;;;5034282;28;20481;-72
2022/08/20 10:45:00;;;;;;;8.70;2.40;;;;;;;;;;5034650;28;20037;-72
2022/08/20 10:48:06;;;;;;;7.82;2.40;;;;;;;;;;5034871;28;20030;-72
2022/08/20 10:51:10;;;;;;;9.35;2.67;;;;;;;;;;5034496;28;20046;-72
2022/08/20 10:54:15;;;;;;;9.45;2.75;;;;;;;;;;5033331;28;20034;-73
2022/08/20 10:57:20;;;;;;;7.78;2.75;;;;;;;;;;5034287;28;20033;-71
2022/08/20 11:00:25;;;;;;;6.28;2.40;;;;;;;;;;5033315;28;20037;-72
2022/08/20 11:03:29;;;;;;;6.60;2.45;;;;;;;;;;5033978;28;20049;-72
2022/08/20 11:06:33;;;;;;;9.90;3.15;;;;;;;;;;5034330;28;20037;-72
2022/08/20 11:09:38;;;;;;;4.30;2.22;;;;;;;;;;5034204;28;20037;-73
2022/08/20 11:12:42;;;;;;;7.03;2.78;;;;;;;;;;5034390;28;20037;-72
2022/08/20 11:15:46;;;;;;;7.65;2.70;;;;;;;;;;5033732;28;20045;-72
2022/08/20 11:18:51;;;;;;;9.00;2.78;;;;;;;;;;5033220;28;20442;-72
2022/08/20 11:21:55;;;;;;;12.48;3.05;;;;;;;;;;5032929;28;20386;-72
2022/08/20 11:24:59;;;;;;;6.43;2.22;;;;;;;;;;5033828;28;20060;-72
2022/08/20 11:28:05;;;;;;;11.13;2.80;;;;;;;;;;5033841;28;20034;-72
2022/08/20 11:31:09;;;;;;;9.95;2.60;;;;;;;;;;5033495;28;20505;-72
2022/08/20 11:34:13;;;;;;;4.75;2.30;;;;;;;;;;5033485;28;20041;-73
2022/08/20 11:37:19;;;;;;;11.18;2.53;;;;;;;;;;5033818;28;20481;-72
2022/08/20 11:40:23;;;;;;;8.88;2.88;;;;;;;;;;5033469;28;20404;-72
2022/08/20 11:43:28;;;;;;;10.05;2.88;;;;;;;;;;5033279;28;20046;-72
2022/08/20 11:46:32;;;;;;;9.68;2.38;;;;;;;;;;5033578;28;20105;-72
2022/08/20 11:49:37;;;;;;;8.18;2.42;;;;;;;;;;5033751;28;20033;-72
2022/08/20 11:52:41;;;;;;;5.97;2.55;;;;;;;;;;5033302;28;20292;-72
2022/08/20 11:55:46;;;;;;;7.03;2.60;;;;;;;;;;5033349;28;20030;-72
2022/08/20 11:58:50;;;;;;;5.03;2.78;;;;;;;;;;5033467;28;20362;-72
2022/08/20 12:01:56;;;;;;;9.68;2.30;;;;;;;;;;5033213;28;20473;-72
2022/08/20 12:05:00;;;;;;;8.23;2.30;;;;;;;;;;5032654;28;20041;-73
2022/08/20 12:08:04;;;;;;;13.35;2.17;;;;;;;;;;5033334;28;20041;-73
2022/08/20 12:11:09;;;;;;;9.07;2.10;;;;;;;;;;5033239;28;20052;-73
2022/08/20 12:14:13;;;;;;;4.68;2.22;;;;;;;;;;5033646;28;20042;-72
2022/08/20 12:17:22;;;;;;;5.80;2.00;;;;;;;;;;5033237;28;20477;-72
2022/08/20 12:20:26;;;;;;;6.68;2.33;;;;;;;;;;5032847;28;20033;-72
2022/08/20 12:23:31;;;;;;;4.95;1.80;;;;;;;;;;5032886;28;20382;-71
2022/08/20 12:26:35;;;;;;;7.57;1.98;;;;;;;;;;5032253;28;20477;-71
2022/08/20 12:29:40;;;;;;;4.25;1.80;;;;;;;;;;5032828;28;20038;-71
2022/08/20 12:32:45;;;;;;;4.65;1.70;;;;;;;;;;5032950;28;20037;-70
2022/08/20 12:35:49;;;;;;;7.30;1.95;;;;;;;;;;5032573;28;20037;-71
2022/08/20 12:38:53;;;;;;;3.42;1.80;;;;;;;;;;5032540;28;20037;-71
2022/08/20 12:41:58;;;;;;;4.13;1.67;;;;;;;;;;5032455;28;20473;-71
2022/08/20 12:45:03;;;;;;;6.93;1.95;;;;;;;;;;5032870;28;20362;-71
2022/08/20 12:48:09;;;;;;;7.05;1.73;;;;;;;;;;5032639;28;20041;-71
2022/08/20 12:51:14;;;;;;;2.60;1.52;;;;;;;;;;5032458;28;20192;-72
2022/08/20 12:54:18;;;;;;;4.32;1.88;;;;;;;;;;5032730;28;20034;-72
2022/08/20 12:57:24;;;;;;;5.95;1.55;;;;;;;;;;5032399;28;20045;-71
2022/08/20 13:00:33;;;;;;;4.00;1.45;;;;;;;;;;5032224;28;20398;-71
2022/08/20 13:03:37;;;;;;;7.35;1.88;;;;;;;;;;5032256;28;20042;-72
2022/08/20 13:06:41;;;;;;;2.78;1.60;;;;;;;;;;5032424;28;20037;-72
2022/08/20 13:09:46;;;;;;;5.18;1.42;;;;;;;;;;5019799;28;20034;-71
2022/08/20 13:12:50;;;;;;;2.83;1.23;;;;;;;;;;5032313;28;20037;-71
2022/08/20 13:15:54;;;;;;;5.10;1.45;;;;;;;;;;5032080;28;20033;-71
2022/08/20 13:18:59;;;;;;;3.17;1.40;;;;;;;;;;5031940;28;20037;-71
2022/08/20 13:22:03;;;;;;;6.78;1.65;;;;;;;;;;5031972;28;20033;-71
2022/08/20 13:25:08;;;;;;;3.75;1.67;;;;;;;;;;5031546;28;20045;-71
2022/08/20 13:28:13;;;;;;;5.22;1.70;;;;;;;;;;5032544;28;20041;-72
2022/08/20 13:31:17;;;;;;;4.15;1.40;;;;;;;;;;5031463;28;20042;-71
2022/08/20 13:34:22;;;;;;;6.22;1.70;;;;;;;;;;5020332;28;20048;-71
2022/08/20 13:37:27;;;;;;;5.03;1.65;;;;;;;;;;5032184;28;20042;-71
2022/08/20 13:40:32;;;;;;;3.00;1.40;;;;;;;;;;5031607;28;20042;-71
2022/08/20 13:43:37;;;;;;;3.60;1.80;;;;;;;;;;5030722;28;20041;-71
2022/08/20 13:46:41;;;;;;;4.15;1.67;;;;;;;;;;5031731;28;20037;-71
2022/08/20 13:49:46;;;;;;;3.67;1.50;;;;;;;;;;5031420;28;20037;-72
2022/08/20 13:52:51;;;;;;;4.85;1.67;;;;;;;;;;5031305;28;20037;-72
2022/08/20 13:55:55;;;;;;;5.53;1.48;;;;;;;;;;5031595;28;20049;-72
2022/08/20 13:58:59;;;;;;;3.65;1.60;;;;;;;;;;5030660;28;20033;-71
2022/08/20 14:02:05;;;;;;;3.30;1.55;;;;;;;;;;5018848;28;20045;-72
2022/08/20 14:05:09;;;;;;;4.22;1.60;;;;;;;;;;5031286;28;20042;-72
2022/08/20 14:08:21;;;;;;;3.90;1.40;;;;;;;;;;5031030;28;20370;-72
2022/08/20 14:11:26;;;;;;;3.90;1.52;;;;;;;;;;5031383;28;20504;-72
2022/08/20 14:14:33;;;;;;;5.32;1.77;;;;;;;;;;5030245;28;20053;-72
2022/08/20 14:17:39;;;;;;;5.80;2.03;;;;;;;;;;5030971;28;20037;-72
2022/08/20 14:20:43;;;;;;;5.15;1.75;;;;;;;;;;5031039;28;20358;-71
2022/08/20 14:23:48;;;;;;;4.13;1.33;;;;;;;;;;5030638;28;20041;-71
2022/08/20 14:26:52;;;;;;;5.78;1.83;;;;;;;;;;4991805;28;20046;-71
2022/08/20 14:29:57;;;;;;;5.90;2.78;;;;;;;;;;4990310;28;20367;-71
2022/08/20 14:33:01;;;;;;;10.93;2.58;;;;;;;;;;4979522;28;20046;-71
2022/08/20 14:36:05;;;;;;;6.07;2.78;;;;;;;;;;4991463;28;20042;-71
2022/08/20 14:39:09;;;;;;;5.82;2.22;;;;;;;;;;4991712;28;20474;-72
2022/08/20 14:42:13;;;;;;;6.90;1.90;;;;;;;;;;4991273;28;20038;-72
2022/08/20 14:45:18;;;;;;;8.38;2.03;;;;;;;;;;4991716;28;20042;-72
2022/08/20 14:48:24;;;;;;;4.50;2.00;;;;;;;;;;4991426;28;20297;-70
2022/08/20 14:51:28;;;;;;;8.43;1.80;;;;;;;;;;4991371;28;20047;-72
2022/08/20 14:54:33;;;;;;;4.18;2.00;;;;;;;;;;4991449;28;20042;-72
2022/08/20 14:57:38;;;;;;;10.98;2.22;;;;;;;;;;4991389;28;20486;-70
2022/08/20 15:00:45;;;;;;;5.70;2.13;;;;;;;;;;4990947;28;20040;-70
2022/08/20 15:03:49;;;;;;;12.10;3.78;;;;;;;;;;4991190;28;20042;-70
2022/08/20 15:06:53;;;;;;;5.78;2.80;;;;;;;;;;4991238;28;20049;-70
2022/08/20 15:09:59;;;;;;;7.30;2.70;;;;;;;;;;4991129;28;20035;-70
2022/08/20 15:13:03;;;;;;;8.52;2.60;;;;;;;;;;4991321;28;20042;-70
2022/08/20 15:16:07;;;;;;;11.50;3.15;;;;;;;;;;4991095;28;20038;-70
2022/08/20 15:19:12;;;;;;;7.55;2.13;;;;;;;;;;4993049;28;20106;-72
2022/08/20 15:22:16;;;;;;;7.63;2.33;;;;;;;;;;4994717;28;20046;-71
2022/08/20 15:25:22;;;;;;;7.05;2.10;;;;;;;;;;5011755;28;20053;-71
2022/08/20 15:28:26;;;;;;;5.28;1.85;;;;;;;;;;5033604;28;20037;-71
2022/08/20 15:31:30;;;;;;;5.95;1.85;;;;;;;;;;5032886;28;20041;-71
2022/08/20 15:34:35;;;;;;;8.52;1.95;;;;;;;;;;5033762;28;20394;-71
2022/08/20 15:37:42;;;;;;;6.97;1.95;;;;;;;;;;5033961;28;20041;-71
2022/08/20 15:40:48;;;;;;;3.88;1.83;;;;;;;;;;5033733;28;20033;-71
2022/08/20 15:43:53;;;;;;;9.18;2.25;;;;;;;;;;5033638;28;20041;-71
2022/08/20 15:47:11;;;;;;;6.88;2.53;;;;;;;;;;5033806;28;20038;-71
2022/08/20 15:50:28;;;;;;;3.92;1.70;;;;;;;;;;5032442;28;20037;-70
2022/08/20 15:53:35;;;;;;;4.60;2.03;;;;;;;;;;5033681;28;20045;-71
2022/08/20 15:56:39;;;;;;;9.90;2.13;;;;;;;;;;5032432;28;20033;-71
2022/08/20 16:00:07;;;;;;;4.90;2.05;;;;;;;;;;5033352;28;20037;-71
2022/08/20 16:03:11;;;;;;;4.75;2.30;;;;;;;;;;5033178;28;20045;-71
2022/08/20 16:06:17;;;;;;;6.07;1.88;;;;;;;;;;5033049;28;20041;-71
2022/08/20 16:09:29;;;;;;;8.18;4.22;;;;;;;;;;5033004;28;20057;-71
2022/08/20 16:12:39;;;;;;;6.60;2.42;;;;;;;;;;5033329;28;20030;-71
2022/08/20 16:15:44;;;;;;;6.38;2.28;;;;;;;;;;5032859;28;20374;-71
2022/08/20 16:18:50;;;;;;;6.30;2.20;;;;;;;;;;5031981;28;20033;-71
2022/08/20 16:21:56;;;;;;;5.25;2.63;;;;;;;;;;5033005;28;20033;-71
2022/08/20 16:25:01;;;;;;;8.27;2.58;;;;;;;;;;5032714;28;20390;-71
2022/08/20 16:28:17;;;;;;;11.48;2.40;;;;;;;;;;5032701;28;20045;-71
2022/08/20 16:31:25;;;;;;;6.18;2.15;;;;;;;;;;5031210;28;20048;-71
2022/08/20 16:34:42;;;;;;;11.70;2.72;;;;;;;;;;5032703;28;20478;-71
2022/08/20 16:38:16;;;;;;;9.80;2.70;;;;;;;;;;5033031;28;20036;-71
2022/08/20 16:41:46;;;;;;;7.28;2.25;;;;;;;;;;5037840;28;20049;-71
2022/08/20 16:44:53;;;;;;;9.95;2.00;;;;;;;;;;5032653;28;20065;-71
2022/08/20 16:48:01;;;;;;;5.80;2.20;;;;;;;;;;5032415;28;20034;-71
2022/08/20 16:51:08;;;;;;;9.38;2.50;;;;;;;;;;5032218;28;20033;-71
2022/08/20 16:54:13;;;;;;;7.18;1.80;;;;;;;;;;5032099;28;20029;-71
2022/08/20 16:57:18;;;;;;;10.35;2.70;;;;;;;;;;5032614;28;20041;-71
2022/08/20 17:00:23;;;;;;;8.60;2.05;;;;;;;;;;5032238;28;20040;-71
2022/08/20 17:03:29;;;;;;;10.07;2.22;;;;;;;;;;5033247;28;20272;-71
2022/08/20 17:06:44;;;;;;;10.20;2.40;;;;;;;;;;5032311;28;20044;-70
2022/08/20 17:09:49;;;;;;;3.53;1.98;;;;;;;;;;5032095;28;20057;-70
2022/08/20 17:12:58;;;;;;;9.93;2.33;;;;;;;;;;5032202;28;20185;-71
2022/08/20 17:16:08;;;;;;;7.38;1.95;;;;;;;;;;5032224;28;20370;-71
2022/08/20 17:19:33;;;;;;;10.10;2.53;;;;;;;;;;5031924;28;20374;-71
2022/08/20 17:22:43;;;;;;;11.65;2.72;;;;;;;;;;5031643;28;20037;-71
2022/08/20 17:25:55;;;;;;;8.52;2.35;;;;;;;;;;5031321;28;20061;-71
2022/08/20 17:29:11;;;;;;;6.60;2.05;;;;;;;;;;5031755;28;20469;-71
2022/08/20 17:32:20;;;;;;;11.27;1.90;;;;;;;;;;5031739;28;20041;-70
2022/08/20 17:35:37;;;;;;;12.75;2.10;;;;;;;;;;5031419;28;20064;-71
2022/08/20 17:38:49;;;;;;;6.72;2.20;;;;;;;;;;5031546;28;20048;-71
2022/08/20 17:41:57;;;;;;;4.68;2.25;;;;;;;;;;5031374;28;20377;-71
2022/08/20 17:45:08;;;;;;;8.85;2.30;;;;;;;;;;5031637;28;20049;-71
2022/08/20 17:48:17;;;;;;;9.30;2.47;;;;;;;;;;5031259;28;20037;-71
2022/08/20 17:51:42;;;;;;;7.97;2.10;;;;;;;;;;5031340;28;20041;-71
2022/08/20 17:54:48;;;;;;;5.88;2.28;;;;;;;;;;5030925;28;20033;-71
2022/08/20 17:57:55;;;;;;;10.52;2.50;;;;;;;;;;5030786;28;20041;-71
2022/08/20 18:00:59;;;;;;;6.15;2.38;;;;;;;;;;5030924;28;20041;-71
2022/08/20 18:04:04;;;;;;;4.28;2.13;;;;;;;;;;5030834;28;20045;-71
2022/08/20 18:07:25;;;;;;;7.25;2.40;;;;;;;;;;5030856;28;20037;-71
2022/08/20 18:10:29;;;;;;;10.95;2.40;;;;;;;;;;5031279;28;20037;-71
2022/08/20 18:13:52;;;;;;;8.18;2.30;;;;;;;;;;5030947;28;20037;-71
2022/08/20 18:17:06;;;;;;;8.63;3.05;;;;;;;;;;5030936;28;20493;-71
2022/08/20 18:20:13;;;;;;;9.88;3.00;;;;;;;;;;5030589;28;20046;-71
2022/08/20 18:23:28;;;;;;;6.68;2.42;;;;;;;;;;5030628;28;20037;-71
2022/08/20 18:26:37;;;;;;;14.10;2.95;;;;;;;;;;5030573;28;20057;-71
2022/08/20 18:29:42;;;;;;;10.77;3.20;;;;;;;;;;5030611;28;20044;-71
2022/08/20 18:32:49;;;;;;;12.27;2.85;;;;;;;;;;5030819;28;20045;-71
2022/08/20 18:36:03;;;;;;;11.07;2.80;;;;;;;;;;5030696;28;20048;-71